Terminal Aerodrome Forecast
Issued by NWS San Angelo, TX

Home | Current Version | Previous Version | Text Only | Print | Product List | Glossary On
Versions: 1 2 3 4 5 6 7 8 9 10 11 12 13 14 15 16
000
FTUS44 KSJT 251700
TAFSJT
TAF
KSJT 251720Z 2518/2618 19024G32KT P6SM BKN250
     FM260000 17013G22KT P6SM BKN250
     FM261100 19015G21KT P6SM OVC015
     FM261700 20013G20KT P6SM OVC250=

USA.gov is the U.S. government's official web portal to all federal, state and local government web resources and services.